Map

Track Data

SID SEASON NUMBER BASIN SUBBASIN NAME ISO_TIME NATURE LAT LON WMO_WIND WMO_PRES WMO_AGENCY TRACK_TYPE DIST2LAND LANDFALL IFLAG USA_AGENCY USA_ATCF_ID USA_LAT USA_LON USA_RECORD USA_STATUS USA_WIND USA_PRES USA_SSHS USA_R34_NE USA_R34_SE USA_R34_SW USA_R34_NW USA_R50_NE USA_R50_SE USA_R50_SW USA_R50_NW USA_R64_NE USA_R64_SE USA_R64_SW USA_R64_NW USA_POCI USA_ROCI USA_RMW USA_EYE TOKYO_LAT TOKYO_LON TOKYO_GRADE TOKYO_WIND TOKYO_PRES TOKYO_R50_DIR TOKYO_R50_LONG TOKYO_R50_SHORT TOKYO_R30_DIR TOKYO_R30_LONG TOKYO_R30_SHORT TOKYO_LAND CMA_LAT CMA_LON CMA_CAT CMA_WIND CMA_PRES HKO_LAT HKO_LON HKO_CAT HKO_WIND HKO_PRES NEWDELHI_LAT NEWDELHI_LON NEWDELHI_GRADE NEWDELHI_WIND NEWDELHI_PRES NEWDELHI_CI NEWDELHI_DP NEWDELHI_POCI REUNION_LAT REUNION_LON REUNION_TYPE REUNION_WIND REUNION_PRES REUNION_TNUM REUNION_CI REUNION_RMW REUNION_R34_NE REUNION_R34_SE REUNION_R34_SW REUNION_R34_NW REUNION_R50_NE REUNION_R50_SE REUNION_R50_SW REUNION_R50_NW REUNION_R64_NE REUNION_R64_SE REUNION_R64_SW REUNION_R64_NW BOM_LAT BOM_LON BOM_TYPE BOM_WIND BOM_PRES BOM_TNUM BOM_CI BOM_RMW BOM_R34_NE BOM_R34_SE BOM_R34_SW BOM_R34_NW BOM_R50_NE BOM_R50_SE BOM_R50_SW BOM_R50_NW BOM_R64_NE BOM_R64_SE BOM_R64_SW BOM_R64_NW BOM_ROCI BOM_POCI BOM_EYE BOM_POS_METHOD BOM_PRES_METHOD NADI_LAT NADI_LON NADI_CAT NADI_WIND NADI_PRES WELLINGTON_LAT WELLINGTON_LON WELLINGTON_WIND WELLINGTON_PRES DS824_LAT DS824_LON DS824_STAGE DS824_WIND DS824_PRES TD9636_LAT TD9636_LON TD9636_STAGE TD9636_WIND TD9636_PRES TD9635_LAT TD9635_LON TD9635_WIND TD9635_PRES TD9635_ROCI NEUMANN_LAT NEUMANN_LON NEUMANN_CLASS NEUMANN_WIND NEUMANN_PRES MLC_LAT MLC_LON MLC_CLASS MLC_WIND MLC_PRES USA_GUST BOM_GUST BOM_GUST_PER REUNION_GUST REUNION_GUST_PER USA_SEAHGT USA_SEARAD_NE USA_SEARAD_SE USA_SEARAD_SW USA_SEARAD_NW STORM_SPEED STORM_DIR
1910251N17112 1910 38 WP MM NOT_NAMED 1910-09-07 16:00:00 NR 17.2000 111.600 main 210 204 __________O___ -1 17.2000 111.600 2 3 276
1910251N17112 1910 38 WP MM NOT_NAMED 1910-09-07 18:00:00 NR 17.2080 111.513 main 204 198 __________P___ -1 17.2080 111.513 2 3 276
1910251N17112 1910 38 WP MM NOT_NAMED 1910-09-07 21:00:00 NR 17.2233 111.377 main 198 184 __________P___ -1 17.2233 111.377 2 3 278
1910251N17112 1910 38 WP MM NOT_NAMED 1910-09-08 00:00:00 NR 17.2469 111.230 main 184 169 __________P___ -1 17.2469 111.230 2 3 281
1910251N17112 1910 38 WP MM NOT_NAMED 1910-09-08 03:00:00 NR 17.2838 111.062 main 169 162 __________P___ -1 17.2838 111.062 2 3 284
1910251N17112 1910 38 WP MM NOT_NAMED 1910-09-08 04:00:00 NR 17.3000 111.000 main 162 155 __________O___ -1 17.3000 111.000 2 4 286
1910251N17112 1910 38 WP MM NOT_NAMED 1910-09-08 06:00:00 NR 17.3386 110.867 main 155 128 __________P___ -1 17.3386 110.867 2 4 288
1910251N17112 1910 38 WP MM NOT_NAMED 1910-09-08 09:00:00 NR 17.4091 110.649 main 128 107 __________P___ -1 17.4091 110.649 2 5 289
1910251N17112 1910 38 WP MM NOT_NAMED 1910-09-08 12:00:00 NR 17.4892 110.416 main 107 85 __________P___ -1 17.4892 110.416 2 5 290
1910251N17112 1910 38 WP MM NOT_NAMED 1910-09-08 15:00:00 NR 17.5725 110.179 main 85 79 __________P___ -1 17.5725 110.179 2 5 290
1910251N17112 1910 38 WP MM NOT_NAMED 1910-09-08 16:00:00 NR 17.6000 110.100 main 79 74 __________O___ -1 17.6000 110.100 2 4 288
1910251N17112 1910 38 WP MM NOT_NAMED 1910-09-08 18:00:00 NR 17.6393 109.968 main 74 56 __________P___ -1 17.6393 109.968 2 4 287
1910251N17112 1910 38 WP MM NOT_NAMED 1910-09-08 21:00:00 NR 17.6980 109.771 main 56 44 __________P___ -1 17.6980 109.771 2 4 288
1910251N17112 1910 38 WP MM NOT_NAMED 1910-09-09 00:00:00 NR 17.7679 109.555 main 44 39 __________P___ -1 17.7679 109.555 2 5 290
1910251N17112 1910 38 WP MM NOT_NAMED 1910-09-09 03:00:00 NR 17.8614 109.298 main 39 39 __________P___ -1 17.8614 109.298 2 5 291
1910251N17112 1910 38 WP MM NOT_NAMED 1910-09-09 04:00:00 NR 17.9000 109.200 main 46 44 __________O___ -1 17.9000 109.200 2 7 292
1910251N17112 1910 38 WP MM NOT_NAMED 1910-09-09 06:00:00 NR 17.9888 108.968 main 44 39 __________P___ -1 17.9888 108.968 2 8 293
1910251N17112 1910 38 WP MM NOT_NAMED 1910-09-09 09:00:00 NR 18.1470 108.576 main 45 35 __________P___ -1 18.1470 108.576 2 8 294
1910251N17112 1910 38 WP MM NOT_NAMED 1910-09-09 12:00:00 NR 18.3295 108.156 main 57 64 __________P___ -1 18.3295 108.156 2 9 296
1910251N17112 1910 38 WP MM NOT_NAMED 1910-09-09 15:00:00 NR 18.5301 107.735 main 105 105 __________P___ -1 18.5301 107.735 2 9 297
1910251N17112 1910 38 WP MM NOT_NAMED 1910-09-09 16:00:00 NR 18.6000 107.600 main 115 115 __________O___ -1 18.6000 107.600 2 9 300
1910251N17112 1910 38 WP MM NOT_NAMED 1910-09-09 18:00:00 NR 18.7431 107.341 main 116 107 __________P___ -1 18.7431 107.341 2 8 302
1910251N17112 1910 38 WP MM NOT_NAMED 1910-09-09 21:00:00 NR 18.9647 106.979 main 115 84 __________P___ -1 18.9647 106.979 2 8 304
1910251N17112 1910 38 WP MM NOT_NAMED 1910-09-10 00:00:00 NR 19.1922 106.638 main 84 52 __________P___ -1 19.1922 106.638 2 8 306
1910251N17112 1910 38 WP MM NOT_NAMED 1910-09-10 03:00:00 NR 19.4229 106.309 main 52 41 __________P___ -1 19.4229 106.309 2 8 307
1910251N17112 1910 38 WP MM NOT_NAMED 1910-09-10 04:00:00 NR 19.5000 106.200 main 41 __________O___ -1 19.5000 106.200 2 8 306

Digital Typhoon Data and Search

About IBTrACS Database

This database is a web-friendly format of International Best Track Archive for Climate Stewardship (IBTrACS), a global best track data archive curated by NOAA dating back to 1842.

Updated: 2021-10-21